Time;durP1;ratioP1;P1;durP2;ratioP2;P2;SDS_P1;SDS_P2;PMS_P1;PMS_P2;Temp;Humidity;BMP_temperature;BMP_pressure;BME280_temperature;BME280_humidity;BME280_pressure;Samples;Min_cycle;Max_cycle;Signal;HPM_P1;HPM_P2
2022/08/06 00:00:07;;;;;;;3.40;1.93;;;19.40;51.40;;;;;;2011079;29;20513;-82
2022/08/06 00:01:12;;;;;;;4.57;2.22;;;19.40;51.40;;;;;;2010885;29;20553;-83
2022/08/06 00:02:13;;;;;;;4.43;2.37;;;19.40;51.50;;;;;;2003959;29;20326;-81
2022/08/06 00:03:13;;;;;;;4.27;2.30;;;19.30;51.50;;;;;;2011013;29;20029;-84
2022/08/06 00:04:15;;;;;;;5.17;2.33;;;19.30;51.60;;;;;;2026577;29;20408;-84
2022/08/06 00:05:15;;;;;;;6.10;2.30;;;19.30;51.60;;;;;;2011012;29;20070;-83
2022/08/06 00:06:16;;;;;;;3.37;1.93;;;19.30;51.50;;;;;;2011122;29;20029;-84
2022/08/06 00:07:17;;;;;;;3.93;1.77;;;19.30;51.60;;;;;;2018871;29;20085;-83
2022/08/06 00:08:18;;;;;;;3.40;1.73;;;19.30;51.60;;;;;;2018089;29;20033;-83
2022/08/06 00:09:19;;;;;;;3.13;1.90;;;19.30;51.70;;;;;;2018788;29;20271;-84
2022/08/06 00:10:19;;;;;;;4.70;2.00;;;19.40;51.70;;;;;;2018652;29;20056;-82
2022/08/06 00:11:20;;;;;;;4.07;1.80;;;19.30;51.70;;;;;;2018731;29;20029;-84
2022/08/06 00:12:21;;;;;;;6.72;2.25;;;19.40;51.80;;;;;;2011061;29;20022;-81
2022/08/06 00:13:22;;;;;;;10.27;2.27;;;19.40;51.70;;;;;;2013347;29;20086;-83
2022/08/06 00:14:23;;;;;;;3.67;2.40;;;19.40;51.70;;;;;;2017611;29;20364;-84
2022/08/06 00:15:24;;;;;;;4.80;2.03;;;19.40;51.70;;;;;;2003244;29;20026;-83
2022/08/06 00:16:25;;;;;;;4.57;2.60;;;19.40;51.70;;;;;;2011035;29;20026;-83
2022/08/06 00:17:26;;;;;;;5.63;1.97;;;19.40;51.80;;;;;;1996030;29;20473;-81
2022/08/06 00:18:26;;;;;;;3.97;2.15;;;19.40;51.80;;;;;;1995790;29;20357;-82
2022/08/06 00:19:27;;;;;;;6.07;2.03;;;19.30;51.80;;;;;;2003443;29;20111;-84
2022/08/06 00:20:28;;;;;;;3.57;2.30;;;19.30;51.80;;;;;;1998728;29;20026;-84
2022/08/06 00:21:29;;;;;;;3.63;1.90;;;19.30;51.80;;;;;;2002350;29;20038;-82
2022/08/06 00:22:30;;;;;;;7.80;2.50;;;19.30;51.80;;;;;;2003279;29;20075;-84
2022/08/06 00:23:31;;;;;;;3.67;2.17;;;19.30;51.90;;;;;;2010942;29;20049;-81
2022/08/06 00:24:31;;;;;;;5.17;2.50;;;19.30;51.90;;;;;;2018659;29;20033;-84
2022/08/06 00:25:32;;;;;;;4.60;2.33;;;19.30;51.90;;;;;;2011094;29;20508;-83
2022/08/06 00:26:33;;;;;;;5.37;2.40;;;19.30;51.90;;;;;;2003288;29;20026;-83
2022/08/06 00:27:34;;;;;;;4.43;2.60;;;19.30;51.90;;;;;;2009982;29;20029;-82
2022/08/06 00:28:35;;;;;;;3.28;2.20;;;19.30;51.80;;;;;;2026175;29;20071;-82
2022/08/06 00:29:36;;;;;;;4.53;2.20;;;19.30;51.80;;;;;;2026416;29;20035;-83
2022/08/06 00:30:36;;;;;;;3.60;2.40;;;19.30;51.80;;;;;;2010912;29;20021;-83
2022/08/06 00:31:37;;;;;;;4.27;2.33;;;19.30;51.80;;;;;;2010929;29;20037;-84
2022/08/06 00:32:38;;;;;;;2.53;1.93;;;19.30;51.80;;;;;;2017532;29;20084;-82
2022/08/06 00:33:41;;;;;;;4.30;2.00;;;19.30;51.90;;;;;;2003240;29;20079;-83
2022/08/06 00:34:42;;;;;;;4.47;2.10;;;19.30;51.90;;;;;;2017508;29;20040;-81
2022/08/06 00:35:44;;;;;;;4.93;2.50;;;19.30;52.00;;;;;;2010688;29;20362;-82
2022/08/06 00:36:44;;;;;;;4.32;2.30;;;19.30;52.00;;;;;;2011004;29;20034;-83
2022/08/06 00:37:45;;;;;;;3.40;2.10;;;19.30;52.00;;;;;;2017725;29;20033;-82
2022/08/06 00:38:46;;;;;;;3.50;2.17;;;19.30;52.00;;;;;;2010810;29;20034;-81
2022/08/06 00:39:47;;;;;;;3.17;2.07;;;19.30;52.10;;;;;;2010886;29;20125;-82
2022/08/06 00:40:49;;;;;;;4.47;2.30;;;19.30;52.10;;;;;;2017436;29;20381;-83
2022/08/06 00:41:50;;;;;;;3.85;2.00;;;19.20;52.10;;;;;;2018560;29;20033;-82
2022/08/06 00:42:51;;;;;;;3.85;2.15;;;19.20;52.20;;;;;;2010804;29;20265;-83
2022/08/06 00:43:52;;;;;;;4.63;2.22;;;19.20;52.20;;;;;;2011039;29;20044;-83
2022/08/06 00:44:53;;;;;;;6.87;2.30;;;19.20;52.30;;;;;;2004754;29;20050;-82
2022/08/06 00:45:54;;;;;;;5.07;2.63;;;19.20;52.30;;;;;;2012780;29;20029;-81
2022/08/06 00:46:54;;;;;;;6.27;2.90;;;19.20;52.30;;;;;;2012295;29;20061;-83
2022/08/06 00:47:56;;;;;;;3.63;2.20;;;19.20;52.30;;;;;;2004737;29;20075;-81
2022/08/06 00:48:57;;;;;;;3.57;2.60;;;19.20;52.30;;;;;;2020051;29;20041;-82
2022/08/06 00:49:57;;;;;;;5.27;2.60;;;19.20;52.30;;;;;;2012317;29;20740;-83
2022/08/06 00:50:58;;;;;;;3.28;2.35;;;19.10;52.20;;;;;;2012414;29;20037;-83
2022/08/06 00:51:59;;;;;;;8.37;3.13;;;19.20;52.20;;;;;;2012345;29;20029;-83
2022/08/06 00:53:00;;;;;;;9.33;2.90;;;19.20;52.10;;;;;;2012217;29;20089;-82
2022/08/06 00:54:01;;;;;;;5.72;2.80;;;19.10;52.10;;;;;;2003788;29;20030;-83
2022/08/06 00:55:02;;;;;;;4.13;2.07;;;19.10;52.10;;;;;;2007092;29;20030;-81
2022/08/06 00:56:04;;;;;;;3.50;2.35;;;19.10;52.10;;;;;;2012164;29;20033;-81
2022/08/06 00:57:05;;;;;;;;;;;19.10;52.00;;;;;;2012704;29;20086;-82
2022/08/06 00:58:06;;;;;;;4.40;2.58;;;19.10;52.10;;;;;;2004547;29;20003;-84
2022/08/06 00:59:07;;;;;;;3.72;2.30;;;19.10;52.10;;;;;;2004925;29;20030;-83
2022/08/06 01:00:09;;;;;;;6.05;2.28;;;19.10;52.10;;;;;;2012272;29;20068;-83
2022/08/06 01:01:10;;;;;;;5.07;2.50;;;19.10;52.10;;;;;;2003775;29;20086;-82
2022/08/06 01:02:12;;;;;;;3.40;2.20;;;19.10;52.10;;;;;;2012148;29;20342;-82
2022/08/06 01:03:16;;;;;;;5.38;2.50;;;19.10;52.10;;;;;;2019988;29;20124;-82
2022/08/06 01:04:18;;;;;;;4.53;3.05;;;19.10;52.10;;;;;;2012099;29;20094;-83
2022/08/06 01:05:19;;;;;;;4.43;2.50;;;19.10;52.10;;;;;;2004809;29;20681;-83
2022/08/06 01:06:20;;;;;;;3.85;2.40;;;19.10;52.10;;;;;;2004525;29;20273;-82
2022/08/06 01:07:21;;;;;;;5.78;2.85;;;19.10;52.10;;;;;;2011330;29;20038;-82
2022/08/06 01:08:22;;;;;;;2.73;2.30;;;19.00;52.00;;;;;;2012173;29;20029;-83
2022/08/06 01:09:23;;;;;;;4.40;2.90;;;19.00;52.10;;;;;;2012386;29;20041;-82
2022/08/06 01:10:23;;;;;;;5.27;2.70;;;19.00;52.20;;;;;;2004481;29;20512;-83
2022/08/06 01:11:24;;;;;;;3.60;2.63;;;19.10;52.20;;;;;;2004518;29;20034;-83
2022/08/06 01:12:28;;;;;;;4.13;2.80;;;19.00;52.20;;;;;;2012224;29;20410;-84
2022/08/06 01:13:29;;;;;;;3.45;2.40;;;19.00;52.10;;;;;;2019805;29;20595;-81
2022/08/06 01:14:30;;;;;;;3.50;2.40;;;19.00;52.20;;;;;;2018821;29;20300;-83
2022/08/06 01:15:36;;;;;;;4.27;2.60;;;19.00;52.20;;;;;;2017838;29;20040;-84
2022/08/06 01:17:04;;;;;;;3.95;2.80;;;19.00;52.30;;;;;;2020471;29;20453;-83
2022/08/06 01:18:11;;;;;;;4.32;2.60;;;19.00;52.20;;;;;;2012080;29;20760;-82
2022/08/06 01:19:29;;;;;;;3.60;2.40;;;19.00;52.30;;;;;;2005406;29;20257;-82
2022/08/06 01:20:52;;;;;;;4.13;2.65;;;19.00;52.40;;;;;;2011444;29;20664;-84
2022/08/06 01:22:29;;;;;;;5.25;2.45;;;19.00;52.40;;;;;;2018960;29;20343;-81
2022/08/06 01:23:42;;;;;;;5.00;2.35;;;19.00;52.30;;;;;;2016815;29;20029;-83
2022/08/06 01:25:01;;;;;;;3.60;2.40;;;19.00;52.40;;;;;;2011996;29;20393;-83
2022/08/06 01:26:21;;;;;;;5.63;2.75;;;19.00;52.40;;;;;;2014526;29;20029;-81
2022/08/06 01:27:33;;;;;;;6.60;2.80;;;19.00;52.40;;;;;;2010971;29;20265;-83
2022/08/06 01:28:58;;;;;;;4.85;2.70;;;19.00;52.40;;;;;;2008216;29;20280;-82
2022/08/06 01:30:05;;;;;;;5.78;2.45;;;18.90;52.30;;;;;;2015054;29;20028;-83
2022/08/06 01:31:19;;;;;;;4.28;2.50;;;18.90;52.40;;;;;;2012739;29;20332;-83
2022/08/06 01:32:28;;;;;;;3.85;2.75;;;18.90;52.40;;;;;;2006143;29;20403;-82
2022/08/06 01:33:39;;;;;;;6.35;2.83;;;18.90;52.40;;;;;;2005479;29;20273;-82
2022/08/06 01:34:52;;;;;;;8.07;2.60;;;18.90;52.50;;;;;;2005859;29;20360;-84
2022/08/06 01:35:58;;;;;;;4.15;2.70;;;18.90;52.50;;;;;;2005906;29;20289;-81
2022/08/06 01:37:08;;;;;;;3.75;2.50;;;18.90;52.50;;;;;;2005590;29;20265;-82
2022/08/06 01:38:15;;;;;;;4.95;2.70;;;18.90;52.60;;;;;;2012004;29;20292;-81
2022/08/06 01:39:18;;;;;;;4.22;2.90;;;18.90;52.60;;;;;;2005036;29;20262;-83
2022/08/06 01:40:24;;;;;;;6.82;2.72;;;18.90;52.60;;;;;;2019553;29;20259;-83
2022/08/06 01:41:39;;;;;;;3.97;2.80;;;18.90;52.70;;;;;;2017885;29;20307;-82
2022/08/06 01:42:42;;;;;;;3.50;2.78;;;18.90;52.80;;;;;;2008201;29;20418;-84
2022/08/06 01:43:43;;;;;;;7.05;2.90;;;18.80;52.80;;;;;;2011787;29;20265;-81
2022/08/06 01:44:46;;;;;;;4.00;2.58;;;18.80;52.80;;;;;;2019608;29;20271;-82
2022/08/06 01:45:49;;;;;;;4.68;2.60;;;18.90;52.90;;;;;;2019218;29;20052;-82
2022/08/06 01:46:55;;;;;;;6.60;2.60;;;18.80;52.90;;;;;;2004899;29;20273;-84
2022/08/06 01:48:00;;;;;;;5.85;2.80;;;18.80;52.90;;;;;;2003522;29;20277;-82
2022/08/06 01:49:03;;;;;;;4.13;2.72;;;18.80;52.90;;;;;;2012699;29;20264;-81
2022/08/06 01:50:06;;;;;;;5.40;2.78;;;18.80;52.90;;;;;;2019714;29;20264;-81
2022/08/06 01:51:09;;;;;;;4.07;2.60;;;18.80;53.00;;;;;;2019470;29;20341;-83
2022/08/06 01:52:11;;;;;;;7.10;3.10;;;18.80;53.00;;;;;;2011630;29;20616;-83
2022/08/06 01:53:16;;;;;;;4.38;2.80;;;18.80;53.00;;;;;;1996871;29;20813;-82
2022/08/06 01:54:19;;;;;;;5.38;2.47;;;18.80;53.10;;;;;;2011861;29;20337;-84
2022/08/06 01:55:21;;;;;;;3.67;2.58;;;18.70;53.10;;;;;;2011426;29;20264;-83
2022/08/06 01:56:23;;;;;;;4.30;2.40;;;18.70;53.20;;;;;;2004516;29;20343;-83
2022/08/06 01:57:26;;;;;;;5.68;2.60;;;18.70;53.80;;;;;;2011779;29;20337;-82
2022/08/06 01:58:34;;;;;;;4.57;2.90;;;18.70;53.20;;;;;;2017339;29;20128;-83
2022/08/06 01:59:41;;;;;;;9.15;2.88;;;18.70;53.30;;;;;;2005114;29;20265;-84
2022/08/06 02:00:46;;;;;;;4.20;2.50;;;18.70;53.30;;;;;;2002309;29;20270;-82
2022/08/06 02:01:52;;;;;;;8.00;2.70;;;18.70;53.30;;;;;;1997751;29;20270;-83
2022/08/06 02:02:55;;;;;;;3.78;2.30;;;18.70;53.30;;;;;;2004742;29;20418;-84
2022/08/06 02:04:00;;;;;;;4.93;2.72;;;18.70;53.30;;;;;;2004840;29;20280;-83
2022/08/06 02:05:03;;;;;;;5.82;2.50;;;18.70;53.30;;;;;;2012299;29;20823;-83
2022/08/06 02:06:06;;;;;;;4.03;2.55;;;18.70;53.20;;;;;;2012108;29;20596;-82
2022/08/06 02:07:09;;;;;;;5.35;2.45;;;18.60;53.10;;;;;;2011612;29;20260;-83
2022/08/06 02:08:14;;;;;;;6.25;2.88;;;18.60;53.10;;;;;;2003716;29;20306;-84
2022/08/06 02:09:19;;;;;;;5.40;3.10;;;18.60;53.30;;;;;;2019434;29;20263;-82
2022/08/06 02:10:22;;;;;;;3.47;2.50;;;18.60;53.30;;;;;;2012129;29;20315;-83
2022/08/06 02:11:23;;;;;;;4.70;2.80;;;18.60;53.20;;;;;;2019689;29;20581;-82
2022/08/06 02:12:26;;;;;;;4.00;2.67;;;18.60;53.30;;;;;;2016627;29;20286;-83
2022/08/06 02:13:30;;;;;;;4.35;2.55;;;18.60;53.30;;;;;;2004472;29;20382;-83
2022/08/06 02:14:36;;;;;;;4.57;2.75;;;18.60;53.40;;;;;;2003339;29;20280;-84
2022/08/06 02:15:38;;;;;;;4.75;3.10;;;18.60;53.40;;;;;;2005255;29;20284;-84
2022/08/06 02:16:41;;;;;;;5.95;2.97;;;18.60;53.40;;;;;;2011808;29;20313;-81
2022/08/06 02:17:53;;;;;;;6.53;2.78;;;18.60;53.40;;;;;;2011418;29;20289;-82
2022/08/06 02:18:57;;;;;;;4.28;2.60;;;18.60;53.40;;;;;;2006540;29;20805;-84
2022/08/06 02:20:01;;;;;;;6.72;3.00;;;18.60;53.40;;;;;;2012130;29;20616;-83
2022/08/06 02:21:06;;;;;;;5.90;2.97;;;18.60;53.40;;;;;;2011155;29;20296;-84
2022/08/06 02:22:07;;;;;;;6.57;2.97;;;18.60;53.50;;;;;;2019443;29;20271;-85
2022/08/06 02:23:13;;;;;;;3.35;2.45;;;18.60;53.50;;;;;;2026975;29;20267;-84
2022/08/06 02:24:14;;;;;;;8.25;2.75;;;18.60;53.50;;;;;;2011562;29;20112;-84
2022/08/06 02:25:16;;;;;;;6.07;2.70;;;18.60;53.50;;;;;;2003984;29;20307;-84
2022/08/06 02:26:18;;;;;;;;;;;18.50;53.50;;;;;;2004736;29;20030;-82
2022/08/06 02:27:19;;;;;;;4.60;2.72;;;18.60;53.60;;;;;;2010761;29;19923;-84
2022/08/06 02:28:23;;;;;;;5.60;3.03;;;18.60;53.70;;;;;;2011678;29;20592;-83
2022/08/06 02:29:26;;;;;;;6.38;2.83;;;18.60;53.70;;;;;;2007672;29;20060;-82
2022/08/06 02:30:33;;;;;;;7.75;2.75;;;18.50;53.60;;;;;;2011834;29;20347;-83
2022/08/06 02:31:34;;;;;;;5.72;3.08;;;18.50;54.20;;;;;;2004660;29;20292;-84
2022/08/06 02:32:35;;;;;;;6.35;2.78;;;18.50;53.70;;;;;;1998894;29;21928;-84
2022/08/06 02:33:36;;;;;;;3.90;2.78;;;18.50;53.70;;;;;;2004089;29;20034;-83
2022/08/06 02:34:37;;;;;;;5.80;2.88;;;18.50;53.80;;;;;;2018298;29;20037;-82
2022/08/06 02:35:45;;;;;;;4.43;2.83;;;18.50;53.80;;;;;;2019295;29;20065;-82
2022/08/06 02:37:17;;;;;;;10.75;3.17;;;18.50;53.70;;;;;;2012874;29;20036;-82
2022/08/06 02:38:38;;;;;;;10.18;3.95;;;18.50;53.50;;;;;;2016903;29;20286;-84
2022/08/06 02:39:47;;;;;;;6.18;3.60;;;18.50;53.20;;;;;;2013780;29;20272;-81
2022/08/06 02:40:56;;;;;;;5.97;3.70;;;18.40;53.00;;;;;;2012007;29;20303;-83
2022/08/06 02:42:17;;;;;;;7.15;3.88;;;18.40;53.40;;;;;;2026057;29;20263;-83
2022/08/06 02:43:26;;;;;;;10.35;3.72;;;18.40;52.80;;;;;;2019308;29;20272;-81
2022/08/06 02:44:57;;;;;;;5.90;3.47;;;18.40;52.70;;;;;;2019168;29;20644;-83
2022/08/06 02:46:25;;;;;;;7.40;3.95;;;18.40;52.70;;;;;;2004701;29;20280;-82
2022/08/06 02:47:36;;;;;;;4.18;3.33;;;18.40;52.70;;;;;;1999478;29;20276;-83
2022/08/06 02:48:56;;;;;;;6.78;3.72;;;18.40;52.80;;;;;;2012822;29;20268;-83
2022/08/06 02:50:00;;;;;;;6.43;3.70;;;18.30;52.80;;;;;;2014154;29;20278;-84
2022/08/06 02:51:08;;;;;;;6.82;3.28;;;18.40;52.80;;;;;;2019404;29;20752;-81
2022/08/06 02:52:30;;;;;;;6.65;3.60;;;18.40;52.60;;;;;;2010468;29;20268;-81
2022/08/06 02:53:39;;;;;;;6.03;3.33;;;18.30;52.70;;;;;;2014140;29;20315;-81
2022/08/06 02:54:50;;;;;;;6.38;3.30;;;18.30;52.70;;;;;;2018071;29;20357;-84
2022/08/06 02:55:55;;;;;;;5.10;3.15;;;18.30;52.70;;;;;;2018983;29;20280;-82
2022/08/06 02:57:02;;;;;;;7.18;4.03;;;18.30;52.80;;;;;;2004315;29;20689;-82
2022/08/06 02:58:19;;;;;;;5.53;3.47;;;18.30;52.90;;;;;;2013550;29;20273;-82
2022/08/06 02:59:28;;;;;;;7.57;3.75;;;18.30;52.90;;;;;;2026744;29;20260;-84
2022/08/06 03:00:32;;;;;;;4.93;3.10;;;18.30;53.10;;;;;;2004877;29;20281;-81
2022/08/06 03:01:38;;;;;;;4.90;3.00;;;18.30;53.10;;;;;;2013400;29;20268;-83
2022/08/06 03:02:42;;;;;;;6.13;3.65;;;18.30;53.10;;;;;;2012080;29;20349;-82
2022/08/06 03:03:46;;;;;;;5.85;3.20;;;18.30;53.20;;;;;;2011855;29;20300;-82
2022/08/06 03:04:49;;;;;;;8.35;3.90;;;18.30;53.20;;;;;;2003934;29;20322;-84
2022/08/06 03:05:53;;;;;;;5.15;2.95;;;18.30;53.30;;;;;;2011596;29;20269;-81
2022/08/06 03:06:55;;;;;;;6.32;3.50;;;18.30;53.40;;;;;;2011220;29;20324;-84
2022/08/06 03:07:58;;;;;;;5.35;3.08;;;18.20;53.40;;;;;;2010547;29;20291;-84
2022/08/06 03:09:02;;;;;;;4.88;2.97;;;18.20;53.40;;;;;;2011499;29;20272;-83
2022/08/06 03:10:04;;;;;;;4.63;3.20;;;18.20;53.50;;;;;;2004019;29;20281;-81
2022/08/06 03:11:07;;;;;;;6.65;3.47;;;18.20;53.50;;;;;;2003818;29;20277;-82
2022/08/06 03:12:10;;;;;;;9.52;3.50;;;18.20;53.60;;;;;;2016808;29;20033;-82
2022/08/06 03:13:12;;;;;;;6.85;3.70;;;18.20;53.60;;;;;;2010622;29;20699;-83
2022/08/06 03:14:15;;;;;;;5.47;3.40;;;18.20;53.60;;;;;;2010413;29;20372;-84
2022/08/06 03:15:18;;;;;;;5.65;3.20;;;18.20;53.70;;;;;;2011328;29;20085;-84
2022/08/06 03:16:20;;;;;;;6.20;3.00;;;18.20;53.70;;;;;;2011561;29;20683;-84
2022/08/06 03:17:23;;;;;;;6.18;3.72;;;18.20;53.80;;;;;;2011088;29;20373;-82
2022/08/06 03:18:25;;;;;;;5.55;3.50;;;18.10;53.80;;;;;;2011497;29;20045;-83
2022/08/06 03:19:28;;;;;;;6.82;3.50;;;18.10;53.90;;;;;;2019195;29;20355;-84
2022/08/06 03:20:31;;;;;;;7.38;3.63;;;18.10;53.90;;;;;;2018673;29;20264;-83
2022/08/06 03:21:33;;;;;;;6.75;3.88;;;18.10;53.90;;;;;;2010514;29;20265;-82
2022/08/06 03:22:37;;;;;;;6.03;3.90;;;18.10;53.90;;;;;;2011328;29;20601;-83
2022/08/06 03:23:38;;;;;;;7.18;3.28;;;18.10;54.00;;;;;;2011469;29;20256;-82
2022/08/06 03:24:42;;;;;;;5.70;3.28;;;18.10;54.00;;;;;;2019184;29;20260;-83
2022/08/06 03:25:44;;;;;;;5.82;3.38;;;18.10;54.00;;;;;;2011728;29;20156;-84
2022/08/06 03:26:46;;;;;;;6.25;3.60;;;18.10;54.00;;;;;;2011224;29;20273;-83
2022/08/06 03:27:48;;;;;;;5.70;3.50;;;18.10;54.10;;;;;;2002920;29;20344;-81
2022/08/06 03:28:49;;;;;;;;;;;18.10;54.10;;;;;;2004264;29;20042;-84
2022/08/06 03:29:51;;;;;;;4.57;3.05;;;18.00;54.00;;;;;;2011250;29;19912;-82
2022/08/06 03:30:53;;;;;;;;;;;18.00;54.00;;;;;;2011767;29;20741;-83
2022/08/06 03:31:55;;;;;;;3.88;2.78;;;18.00;54.10;;;;;;2019052;29;20010;-82
2022/08/06 03:32:56;;;;;;;;;;;18.00;54.20;;;;;;2011963;29;20264;-82
2022/08/06 03:33:58;;;;;;;5.88;2.95;;;18.00;54.20;;;;;;2018674;29;19912;-82
2022/08/06 03:34:59;;;;;;;;;;;18.00;54.20;;;;;;2019353;29;20835;-83
2022/08/06 03:36:02;;;;;;;6.30;3.47;;;18.00;54.20;;;;;;2018749;29;19971;-84
2022/08/06 03:37:04;;;;;;;7.53;3.85;;;18.00;54.30;;;;;;2003711;29;20040;-81
2022/08/06 03:38:06;;;;;;;;;;;18.00;54.30;;;;;;2011570;29;20265;-83
2022/08/06 03:39:11;;;;;;;5.93;3.45;;;18.00;54.30;;;;;;2011399;29;19912;-84
2022/08/06 03:40:14;;;;;;;4.78;3.05;;;18.00;54.30;;;;;;2011145;29;20125;-83
2022/08/06 03:41:16;;;;;;;5.45;3.38;;;18.00;54.30;;;;;;2010237;29;20800;-82
2022/08/06 03:42:17;;;;;;;5.95;3.25;;;17.90;54.30;;;;;;2011440;29;20424;-81
2022/08/06 03:43:18;;;;;;;7.85;3.70;;;18.00;54.40;;;;;;2011116;29;20736;-82
2022/08/06 03:44:19;;;;;;;7.90;3.50;;;17.90;54.40;;;;;;2011145;29;20056;-83
2022/08/06 03:45:20;;;;;;;7.38;3.50;;;17.90;54.30;;;;;;2011278;29;20445;-82
2022/08/06 03:46:29;;;;;;;4.60;3.30;;;17.90;54.30;;;;;;2003420;29;20133;-83
2022/08/06 03:47:34;;;;;;;5.85;3.60;;;17.90;54.40;;;;;;2011243;29;20273;-82
2022/08/06 03:48:38;;;;;;;5.47;3.15;;;17.90;54.90;;;;;;2011484;29;20792;-83
2022/08/06 03:49:50;;;;;;;8.05;3.55;;;17.90;54.30;;;;;;2006494;29;20349;-82
2022/08/06 03:50:53;;;;;;;6.07;3.30;;;17.90;54.40;;;;;;2006150;29;20277;-82
2022/08/06 03:51:56;;;;;;;7.97;3.05;;;17.90;54.50;;;;;;2010966;29;20592;-83
2022/08/06 03:53:04;;;;;;;6.68;3.42;;;17.90;54.50;;;;;;2011211;29;20304;-83
2022/08/06 03:54:07;;;;;;;5.90;3.37;;;17.90;54.60;;;;;;2003346;29;20265;-84
2022/08/06 03:55:12;;;;;;;7.22;3.40;;;17.80;54.60;;;;;;2004001;29;20277;-82
2022/08/06 03:56:20;;;;;;;5.32;3.63;;;17.80;54.60;;;;;;2010884;29;20303;-84
2022/08/06 03:57:25;;;;;;;11.35;3.78;;;17.80;54.70;;;;;;2005291;29;20356;-82
2022/08/06 03:58:29;;;;;;;6.00;3.57;;;17.80;54.70;;;;;;2019027;29;20339;-82
2022/08/06 03:59:32;;;;;;;4.45;3.25;;;17.80;54.70;;;;;;2026329;29;20267;-84
2022/08/06 04:00:41;;;;;;;5.03;3.33;;;17.80;54.70;;;;;;2018858;29;20271;-82
2022/08/06 04:01:45;;;;;;;4.73;3.30;;;17.80;54.80;;;;;;2010992;29;20269;-82
2022/08/06 04:02:48;;;;;;;5.60;4.00;;;17.80;54.90;;;;;;2011377;29;20272;-82
2022/08/06 04:03:51;;;;;;;5.70;3.50;;;17.80;54.80;;;;;;2018374;29;20272;-83
2022/08/06 04:04:52;;;;;;;8.43;3.30;;;17.80;54.80;;;;;;2011211;29;20269;-81
2022/08/06 04:05:54;;;;;;;6.63;3.83;;;17.80;54.80;;;;;;2011052;29;20335;-85
2022/08/06 04:06:57;;;;;;;4.80;3.30;;;17.80;54.80;;;;;;2011173;29;20060;-84
2022/08/06 04:08:02;;;;;;;5.72;3.60;;;17.80;54.70;;;;;;2010339;29;20268;-81
2022/08/06 04:09:05;;;;;;;7.70;3.40;;;17.80;54.80;;;;;;2003965;29;20606;-84
2022/08/06 04:10:07;;;;;;;6.43;3.17;;;17.80;54.90;;;;;;2011131;29;20316;-83
2022/08/06 04:11:10;;;;;;;8.75;3.58;;;17.80;54.90;;;;;;2011004;29;20620;-82
2022/08/06 04:12:11;;;;;;;6.45;3.22;;;17.80;54.90;;;;;;2003686;29;20116;-84
2022/08/06 04:13:14;;;;;;;5.67;3.37;;;17.80;54.90;;;;;;2011038;29;20636;-83
2022/08/06 04:14:16;;;;;;;6.40;3.65;;;17.80;55.00;;;;;;2017721;29;20324;-81
2022/08/06 04:15:17;;;;;;;5.10;3.00;;;17.70;55.00;;;;;;2010884;29;20707;-84
2022/08/06 04:16:18;;;;;;;5.50;3.55;;;17.70;55.00;;;;;;2003273;29;20082;-82
2022/08/06 04:17:20;;;;;;;5.22;3.20;;;17.70;55.10;;;;;;2011051;29;20120;-81
2022/08/06 04:18:42;;;;;;;6.38;3.42;;;17.70;55.10;;;;;;2011505;29;20115;-83
2022/08/06 04:19:46;;;;;;;5.07;3.20;;;17.70;55.10;;;;;;2010297;29;20711;-85
2022/08/06 04:20:50;;;;;;;5.13;3.27;;;17.70;55.20;;;;;;2018475;29;20052;-82
2022/08/06 04:21:50;;;;;;;5.28;3.35;;;17.60;55.10;;;;;;2020505;29;20656;-83
2022/08/06 04:22:52;;;;;;;5.43;3.63;;;17.60;55.20;;;;;;2020397;29;20268;-84
2022/08/06 04:23:53;;;;;;;5.32;2.97;;;17.60;55.30;;;;;;2012552;29;20526;-83
2022/08/06 04:24:53;;;;;;;6.23;3.50;;;17.60;55.30;;;;;;2020370;29;20041;-82
2022/08/06 04:25:57;;;;;;;5.40;3.67;;;17.60;55.30;;;;;;2012371;29;20030;-84
2022/08/06 04:27:02;;;;;;;6.87;3.47;;;17.60;55.40;;;;;;1997885;29;20458;-83
2022/08/06 04:28:05;;;;;;;5.57;3.38;;;17.60;55.90;;;;;;2011935;29;20600;-83
2022/08/06 04:29:15;;;;;;;5.70;3.45;;;17.60;55.30;;;;;;2024835;29;20351;-81
2022/08/06 04:30:16;;;;;;;6.90;3.35;;;17.60;55.40;;;;;;2020221;29;20280;-81
2022/08/06 04:31:19;;;;;;;6.40;3.15;;;17.60;55.40;;;;;;2014371;29;20835;-81
2022/08/06 04:32:22;;;;;;;5.18;2.97;;;17.60;55.40;;;;;;2005659;29;20373;-81
2022/08/06 04:33:24;;;;;;;4.88;3.25;;;17.60;55.50;;;;;;2005389;29;20352;-82
2022/08/06 04:34:27;;;;;;;4.37;3.13;;;17.60;55.50;;;;;;2008202;29;20258;-84
2022/08/06 04:35:31;;;;;;;5.03;3.30;;;17.50;55.50;;;;;;2012685;29;20306;-82
2022/08/06 04:36:33;;;;;;;4.93;3.20;;;17.50;55.40;;;;;;2005036;29;20269;-84
2022/08/06 04:37:35;;;;;;;7.15;3.88;;;17.50;55.60;;;;;;2012533;29;20368;-84
2022/08/06 04:38:37;;;;;;;7.60;3.70;;;17.50;55.70;;;;;;2027606;29;20024;-84
2022/08/06 04:39:38;;;;;;;7.10;3.67;;;17.50;55.60;;;;;;2019959;29;20298;-83
2022/08/06 04:40:40;;;;;;;6.07;3.60;;;17.50;55.60;;;;;;2003915;29;20030;-81
2022/08/06 04:41:42;;;;;;;7.23;4.00;;;17.50;55.60;;;;;;2005150;29;20105;-83
2022/08/06 04:42:43;;;;;;;6.03;3.40;;;17.50;55.60;;;;;;2012322;29;20269;-83
2022/08/06 04:43:45;;;;;;;7.93;3.38;;;17.50;55.60;;;;;;2012430;29;20042;-84
2022/08/06 04:44:47;;;;;;;8.23;3.83;;;17.50;55.60;;;;;;2017073;29;20032;-84
2022/08/06 04:45:49;;;;;;;8.55;3.22;;;17.50;55.60;;;;;;2012546;29;20273;-82
2022/08/06 04:46:51;;;;;;;8.40;3.75;;;17.50;55.70;;;;;;2012282;29;20047;-81
2022/08/06 04:47:52;;;;;;;4.97;3.38;;;17.50;55.70;;;;;;1998725;29;20026;-84
2022/08/06 04:48:53;;;;;;;6.30;3.65;;;17.40;55.60;;;;;;2004906;29;20034;-82
2022/08/06 04:49:54;;;;;;;8.07;3.65;;;17.40;55.70;;;;;;2012494;29;20109;-81
2022/08/06 04:50:55;;;;;;;6.00;3.90;;;17.50;55.80;;;;;;2012474;29;20120;-82
2022/08/06 04:51:56;;;;;;;6.30;3.78;;;17.40;55.80;;;;;;2012365;29;20079;-82
2022/08/06 04:53:07;;;;;;;5.20;3.70;;;17.40;55.90;;;;;;2012516;29;20041;-81
2022/08/06 04:54:08;;;;;;;7.28;3.40;;;17.40;55.90;;;;;;2011580;29;20038;-82
2022/08/06 04:55:09;;;;;;;5.65;3.85;;;17.40;56.00;;;;;;2004756;29;20388;-83
2022/08/06 04:56:10;;;;;;;5.80;3.97;;;17.40;55.90;;;;;;2012472;29;20057;-83
2022/08/06 04:57:11;;;;;;;5.38;3.65;;;17.40;56.00;;;;;;2012564;29;20473;-83
2022/08/06 04:58:14;;;;;;;8.43;3.73;;;17.40;56.00;;;;;;2012644;29;20021;-83
2022/08/06 04:59:15;;;;;;;6.75;3.60;;;17.40;56.00;;;;;;2005164;29;20106;-82
2022/08/06 05:00:16;;;;;;;5.15;3.70;;;17.40;55.90;;;;;;2012533;29;20336;-84
2022/08/06 05:01:17;;;;;;;4.93;3.17;;;17.40;55.90;;;;;;2026760;29;20029;-83
2022/08/06 05:02:18;;;;;;;5.63;3.65;;;17.40;56.00;;;;;;2004865;29;20492;-84
2022/08/06 05:03:19;;;;;;;5.82;3.72;;;17.30;56.00;;;;;;2008328;29;20064;-83
2022/08/06 05:04:19;;;;;;;8.47;4.00;;;17.30;56.10;;;;;;2012266;29;20097;-81
2022/08/06 05:05:22;;;;;;;5.37;3.67;;;17.30;56.20;;;;;;2004685;29;20485;-82
2022/08/06 05:06:23;;;;;;;6.77;4.20;;;17.30;56.20;;;;;;2012752;29;20536;-84
2022/08/06 05:07:29;;;;;;;5.32;3.65;;;17.30;56.10;;;;;;1998671;29;20355;-82
2022/08/06 05:08:33;;;;;;;4.82;3.42;;;17.30;56.10;;;;;;1996974;29;20035;-83
2022/08/06 05:09:33;;;;;;;6.10;3.88;;;17.30;56.70;;;;;;2005265;29;20759;-83
2022/08/06 05:11:00;;;;;;;7.33;4.00;;;17.30;56.10;;;;;;2012187;29;20304;-83
2022/08/06 05:12:05;;;;;;;7.93;4.18;;;17.30;56.20;;;;;;2012872;29;20051;-82
2022/08/06 05:13:11;;;;;;;5.47;3.73;;;17.30;56.10;;;;;;2019797;29;20304;-82
2022/08/06 05:14:20;;;;;;;5.95;3.83;;;17.30;56.20;;;;;;2010892;29;20693;-81
2022/08/06 05:15:32;;;;;;;7.00;3.63;;;17.20;56.10;;;;;;2012400;29;20264;-82
2022/08/06 05:16:36;;;;;;;5.35;3.83;;;17.20;56.20;;;;;;2004459;29;20341;-84
2022/08/06 05:17:42;;;;;;;7.60;4.07;;;17.20;56.20;;;;;;2005340;29;20022;-83
2022/08/06 05:18:51;;;;;;;8.20;4.18;;;17.20;56.20;;;;;;2027402;29;20366;-83
2022/08/06 05:20:11;;;;;;;7.23;4.00;;;17.20;56.20;;;;;;2018741;29;20268;-82
2022/08/06 05:21:18;;;;;;;6.20;3.63;;;17.20;56.20;;;;;;2022592;29;20271;-81
2022/08/06 05:22:20;;;;;;;4.77;3.47;;;17.20;56.30;;;;;;2026647;29;20268;-83
2022/08/06 05:23:27;;;;;;;7.20;4.45;;;17.20;56.30;;;;;;2004640;29;20691;-84
2022/08/06 05:24:29;;;;;;;7.80;4.05;;;17.20;56.30;;;;;;2012857;29;20060;-81
2022/08/06 05:25:32;;;;;;;6.22;4.07;;;17.20;56.40;;;;;;2012191;29;20359;-84
2022/08/06 05:26:34;;;;;;;6.07;3.83;;;17.20;56.40;;;;;;2004692;29;20364;-84
2022/08/06 05:27:35;;;;;;;9.40;3.88;;;17.20;56.50;;;;;;2006392;29;20272;-84
2022/08/06 05:28:39;;;;;;;7.93;4.00;;;17.20;56.40;;;;;;2004343;29;20061;-84
2022/08/06 05:29:40;;;;;;;5.77;3.97;;;17.20;56.50;;;;;;2010800;29;20017;-82
2022/08/06 05:30:49;;;;;;;4.97;3.70;;;17.20;56.50;;;;;;2018569;29;20351;-83
2022/08/06 05:31:57;;;;;;;7.83;3.40;;;17.20;56.60;;;;;;2019758;29;20033;-84
2022/08/06 05:32:58;;;;;;;6.40;3.80;;;17.10;56.60;;;;;;2020545;29;20352;-82
2022/08/06 05:33:58;;;;;;;7.43;4.28;;;17.20;56.60;;;;;;2018968;29;20657;-83
2022/08/06 05:34:59;;;;;;;6.57;3.83;;;17.20;56.60;;;;;;2004485;29;20101;-82